Time;durP1;ratioP1;P1;durP2;ratioP2;P2;SDS_P1;SDS_P2;PMS_P1;PMS_P2;Temp;Humidity;BMP_temperature;BMP_pressure;BME280_temperature;BME280_humidity;BME280_pressure;Samples;Min_cycle;Max_cycle;Signal;HPM_P1;HPM_P2
2022/02/02 00:01:36;;;;;;;;;;;4.10;99.90;;;;;;5113227;28;19955;-53
2022/02/02 00:04:05;;;;;;;;;;;4.10;99.90;;;;;;5112908;28;19923;-53
2022/02/02 00:06:38;;;;;;;;;;;4.20;99.90;;;;;;5113412;28;19924;-53
2022/02/02 00:09:10;;;;;;;;;;;4.30;99.90;;;;;;5134807;27;19929;-53
2022/02/02 00:14:35;;;;;;;;;;;4.30;99.90;;;;;;5106506;28;19927;-53
2022/02/02 00:17:07;;;;;;;;;;;4.40;99.90;;;;;;5117918;28;19971;-53
2022/02/02 00:19:47;;;;;;;;;;;4.40;99.90;;;;;;5117801;28;19924;-53
2022/02/02 00:22:17;;;;;;;;;;;4.40;99.90;;;;;;5127610;27;19924;-52
2022/02/02 00:25:03;;;;;;;;;;;4.50;99.90;;;;;;5130382;28;19924;-53
2022/02/02 00:27:32;;;;;;;;;;;4.50;99.90;;;;;;5149056;27;19974;-53
2022/02/02 00:30:02;;;;;;;;;;;4.50;99.90;;;;;;5139516;27;19969;-58
2022/02/02 00:32:47;;;;;;;;;;;4.50;99.90;;;;;;5137368;27;19927;-53
2022/02/02 00:35:18;;;;;;;;;;;4.50;99.90;;;;;;5137935;27;19923;-52
2022/02/02 00:37:44;;;;;;;;;;;4.50;99.90;;;;;;5134015;27;19923;-58
2022/02/02 00:40:11;;;;;;;;;;;4.70;99.90;;;;;;5128546;27;19931;-50
2022/02/02 00:42:39;;;;;;;;;;;4.80;99.90;;;;;;5128025;27;19924;-51
2022/02/02 00:45:06;;;;;;;;;;;4.80;99.90;;;;;;5116658;28;19930;-51
2022/02/02 00:47:37;;;;;;;;;;;4.80;99.90;;;;;;5124959;27;20281;-50
2022/02/02 00:50:05;;;;;;;;;;;4.80;99.90;;;;;;5137423;27;20385;-51
2022/02/02 00:52:31;;;;;;;;;;;4.80;99.90;;;;;;5127788;27;19932;-53
2022/02/02 00:54:58;;;;;;;;;;;4.80;99.90;;;;;;5119532;27;19947;-51
2022/02/02 00:57:28;;;;;;;;;;;4.80;99.90;;;;;;5120538;27;19976;-51
2022/02/02 00:59:56;;;;;;;;;;;4.90;99.90;;;;;;5116479;27;19924;-52
2022/02/02 01:02:23;;;;;;;;;;;5.00;99.90;;;;;;5131818;27;19988;-52
2022/02/02 01:04:50;;;;;;;;;;;5.00;99.90;;;;;;5137403;27;20454;-52
2022/02/02 01:07:23;;;;;;;;;;;5.10;99.90;;;;;;5136373;27;19923;-52
2022/02/02 01:10:01;;;;;;;;;;;5.10;99.90;;;;;;5136995;27;19923;-52
2022/02/02 01:12:42;;;;;;;;;;;5.00;99.90;;;;;;5136992;27;19976;-52
2022/02/02 01:20:54;;;;;;;;;;;4.90;99.90;;;;;;5123188;27;20003;-51
2022/02/02 01:28:50;;;;;;;;;;;4.90;99.90;;;;;;5130180;27;19930;-52
2022/02/02 01:31:18;;;;;;;;;;;4.90;99.90;;;;;;5137018;27;19976;-52
2022/02/02 01:33:47;;;;;;;;;;;4.90;99.90;;;;;;5137197;27;19923;-52
2022/02/02 01:36:14;;;;;;;;;;;4.90;99.90;;;;;;5137028;27;19923;-52
2022/02/02 01:38:42;;;;;;;;;;;4.90;99.90;;;;;;5136557;27;19976;-52
2022/02/02 01:41:10;;;;;;;;;;;4.80;99.90;;;;;;5136790;27;19930;-52
2022/02/02 01:43:43;;;;;;;;;;;4.70;99.90;;;;;;5155359;27;20007;-52
2022/02/02 01:46:13;;;;;;;;;;;4.80;99.90;;;;;;5157337;27;19975;-52
2022/02/02 01:48:47;;;;;;;;;;;4.80;99.90;;;;;;5157231;27;20377;-52
2022/02/02 01:51:44;;;;;;;;;;;4.90;99.90;;;;;;5116104;28;20369;-52
2022/02/02 01:54:34;;;;;;;;;;;5.00;99.90;;;;;;5115531;28;19924;-52
2022/02/02 01:57:10;;;;;;;;;;;5.30;99.90;;;;;;5118689;27;19927;-53
2022/02/02 01:59:39;;;;;;;;;;;5.30;99.90;;;;;;5152813;27;20035;-52
2022/02/02 02:02:07;;;;;;;;;;;5.30;99.90;;;;;;5157278;27;20281;-52
2022/02/02 02:04:35;;;;;;;;;;;5.20;99.90;;;;;;5156795;27;19923;-52
2022/02/02 02:07:02;;;;;;;;;;;5.30;99.90;;;;;;5119672;27;19928;-52
2022/02/02 02:09:29;;;;;;;;;;;5.10;99.90;;;;;;5115683;27;20515;-52
2022/02/02 02:11:57;;;;;;;;;;;5.10;99.90;;;;;;5118153;27;20382;-51
2022/02/02 02:14:41;;;;;;;;;;;5.20;99.90;;;;;;5153299;27;20376;-52
2022/02/02 02:17:08;;;;;;;;;;;5.00;99.90;;;;;;5157063;27;19945;-52
2022/02/02 02:19:40;;;;;;;;;;;5.00;99.90;;;;;;5156485;27;20341;-51
2022/02/02 02:22:10;;;;;;;;;;;5.10;99.90;;;;;;5137029;27;19923;-52
2022/02/02 02:24:40;;;;;;;;;;;5.00;99.90;;;;;;5136304;27;19923;-52
2022/02/02 02:27:08;;;;;;;;;;;5.00;99.90;;;;;;5138084;27;19924;-52
2022/02/02 02:29:50;;;;;;;;;;;4.90;99.90;;;;;;5136452;27;19963;-52
2022/02/02 02:32:29;;;;;;;;;;;4.90;99.90;;;;;;5135754;27;19931;-52
2022/02/02 02:37:58;;;;;;;;;;;5.20;99.90;;;;;;5133064;27;19920;-52
2022/02/02 02:55:46;;;;;;;;;;;5.30;99.90;;;;;;5136117;27;20022;-53
2022/02/02 02:56:55;;;;;;;;;;;5.40;99.90;;;;;;5144504;22;20400;-52
2022/02/02 02:59:34;;;;;;;;;;;5.50;99.90;;;;;;5089638;28;19939;-51
2022/02/02 03:02:40;;;;;;;;;;;5.50;99.90;;;;;;5092527;28;19970;-51
2022/02/02 03:30:01;;;;;;;;;;;5.60;99.90;;;;;;5071489;28;19927;-53
2022/02/02 03:32:59;;;;;;;;;;;5.60;99.90;;;;;;5071891;28;19924;-52
2022/02/02 03:49:20;;;;;;;;;;;5.60;99.90;;;;;;5071891;28;19925;-51
2022/02/02 03:49:30;;;;;;;;;;;5.70;99.90;;;;;;5071419;28;19932;-51
2022/02/02 03:52:18;;;;;;;;;;;5.70;99.90;;;;;;5071381;28;20023;-51
2022/02/02 03:54:57;;;;;;;;;;;5.70;99.90;;;;;;5071542;28;19955;-50
2022/02/02 03:57:35;;;;;;;;;;;5.60;99.90;;;;;;5071263;28;20283;-50
2022/02/02 04:00:25;;;;;;;;;;;5.60;99.90;;;;;;5074618;28;19975;-52
2022/02/02 04:05:42;;;;;;;;;;;5.80;99.90;;;;;;5042829;28;19925;-52
2022/02/02 04:08:26;;;;;;;;;;;5.80;99.90;;;;;;5055069;28;20384;-51
2022/02/02 04:10:53;;;;;;;;;;;5.90;99.90;;;;;;5064957;28;19935;-52
2022/02/02 04:13:34;;;;;;;;;;;6.00;99.90;;;;;;5057078;28;19924;-51
2022/02/02 04:38:42;;;;;;;;;;;5.80;99.90;;;;;;5056453;28;19932;-49
2022/02/02 04:52:23;;;;;;;;;;;5.40;99.90;;;;;;5055151;28;19935;-49
2022/02/02 04:54:56;;;;;;;;;;;5.40;99.90;;;;;;5067523;28;19924;-50
2022/02/02 04:57:48;;;;;;;;;;;5.40;99.90;;;;;;5054391;28;19924;-49
2022/02/02 05:01:02;;;;;;;;;;;5.50;99.90;;;;;;5055668;28;20402;-49
2022/02/02 05:06:17;;;;;;;;;;;5.50;99.90;;;;;;5056856;28;19968;-50
2022/02/02 05:08:52;;;;;;;;;;;5.40;99.90;;;;;;5054373;28;19978;-49
2022/02/02 05:11:40;;;;;;;;;;;5.50;99.90;;;;;;5054388;28;20375;-51
2022/02/02 05:17:16;;;;;;;;;;;5.70;99.90;;;;;;5065141;28;19921;-52
2022/02/02 05:20:13;;;;;;;;;;;5.70;99.90;;;;;;5071508;28;19928;-49
2022/02/02 05:42:39;;;;;;;;;;;5.70;99.90;;;;;;5053747;28;20606;-49
2022/02/02 05:50:47;;;;;;;;;;;5.80;99.90;;;;;;5053638;28;20405;-49
2022/02/02 05:53:14;;;;;;;;;;;5.90;99.90;;;;;;5064744;28;19941;-50
2022/02/02 05:55:42;;;;;;;;;;;6.00;99.90;;;;;;5072298;28;20027;-50
2022/02/02 05:58:10;;;;;;;;;;;6.10;99.90;;;;;;5068034;28;19981;-50
2022/02/02 06:00:38;;;;;;;;;;;6.10;99.90;;;;;;5071868;28;19978;-50
2022/02/02 06:03:09;;;;;;;;;;;6.20;99.90;;;;;;5072017;28;19981;-51
2022/02/02 06:05:36;;;;;;;;;;;6.20;99.90;;;;;;5059893;28;20383;-50
2022/02/02 06:08:03;;;;;;;;;;;6.20;99.90;;;;;;5054493;28;19928;-50
2022/02/02 06:10:31;;;;;;;;;;;6.00;99.90;;;;;;5053114;28;19933;-49
2022/02/02 06:12:59;;;;;;;;;;;6.00;99.90;;;;;;5053046;28;19924;-49
2022/02/02 06:15:28;;;;;;;;;;;5.90;99.90;;;;;;5053294;28;20041;-49
2022/02/02 06:17:56;;;;;;;;;;;5.90;99.90;;;;;;5061539;28;19929;-51
2022/02/02 06:20:24;;;;;;;;;;;6.00;99.90;;;;;;5073731;28;19932;-49
2022/02/02 06:22:52;;;;;;;;;;;6.00;99.90;;;;;;5076419;28;19993;-49
2022/02/02 06:25:22;;;;;;;;;;;5.90;99.90;;;;;;5072651;28;20015;-48
2022/02/02 06:27:52;;;;;;;;;;;5.90;99.90;;;;;;5086347;28;20018;-49
2022/02/02 06:30:19;;;;;;;;;;;5.90;99.90;;;;;;5092827;28;20485;-48
2022/02/02 06:32:49;;;;;;;;;;;5.90;99.90;;;;;;5091072;28;20294;-49
2022/02/02 06:35:17;;;;;;;;;;;6.00;99.90;;;;;;5079476;28;19925;-48
2022/02/02 06:37:44;;;;;;;;;;;6.00;99.90;;;;;;5068982;28;19924;-50
2022/02/02 06:40:12;;;;;;;;;;;6.00;99.90;;;;;;5071607;28;20477;-50
2022/02/02 06:42:39;;;;;;;;;;;6.10;99.90;;;;;;5053681;28;19936;-50
2022/02/02 06:45:06;;;;;;;;;;;6.10;99.90;;;;;;5052562;28;19928;-49
2022/02/02 06:47:34;;;;;;;;;;;6.10;99.90;;;;;;5052641;28;19925;-50
2022/02/02 06:50:08;;;;;;;;;;;6.10;99.90;;;;;;5052350;28;19936;-49
2022/02/02 06:52:39;;;;;;;;;;;6.10;99.90;;;;;;5070629;28;19929;-49
2022/02/02 06:55:11;;;;;;;;;;;6.10;99.90;;;;;;5071455;28;19928;-50
2022/02/02 06:57:49;;;;;;;;;;;6.20;99.90;;;;;;5071105;28;20336;-51
2022/02/02 07:00:26;;;;;;;;;;;6.20;99.90;;;;;;5071014;28;20394;-50
2022/02/02 07:03:04;;;;;;;;;;;6.20;99.90;;;;;;5070873;28;20278;-50
2022/02/02 07:05:39;;;;;;;;;;;6.10;99.90;;;;;;5070985;28;19948;-49
2022/02/02 07:08:20;;;;;;;;;;;6.20;99.90;;;;;;5070512;28;19933;-51
2022/02/02 07:13:52;;;;;;;;;;;6.20;99.90;;;;;;5052396;28;20323;-48
2022/02/02 07:16:31;;;;;;;;;;;6.20;99.90;;;;;;5070699;28;20314;-49
2022/02/02 07:19:11;;;;;;;;;;;6.20;99.90;;;;;;5070159;28;20026;-49
2022/02/02 07:22:06;;;;;;;;;;;6.30;99.90;;;;;;5070692;28;19928;-50
2022/02/02 07:27:44;;;;;;;;;;;6.40;99.90;;;;;;5042750;28;20295;-50
2022/02/02 07:30:32;;;;;;;;;;;6.50;99.90;;;;;;5065885;28;19924;-49
2022/02/02 07:33:08;;;;;;;;;;;6.50;99.90;;;;;;5071047;28;19931;-51
2022/02/02 07:35:49;;;;;;;;;;;6.60;99.90;;;;;;5066007;28;19925;-50
2022/02/02 07:38:22;;;;;;;;;;;6.60;99.90;;;;;;5070204;28;19983;-49
2022/02/02 07:40:52;;;;;;;;;;;6.50;99.90;;;;;;5070429;28;19940;-49
2022/02/02 07:43:26;;;;;;;;;;;6.60;99.90;;;;;;5070282;28;19924;-49
2022/02/02 07:45:57;;;;;;;;;;;6.60;99.90;;;;;;5070386;28;19924;-50
2022/02/02 07:48:24;;;;;;;;;;;6.60;99.90;;;;;;5069720;28;19955;-49
2022/02/02 07:50:53;;;;;;;;;;;6.70;99.90;;;;;;5064372;28;19978;-49
2022/02/02 07:53:23;;;;;;;;;;;6.70;99.90;;;;;;5072351;28;19924;-49
2022/02/02 07:55:50;;;;;;;;;;;6.60;99.90;;;;;;5076219;28;19924;-51
2022/02/02 07:58:21;;;;;;;;;;;6.60;99.90;;;;;;5067536;28;19925;-49
2022/02/02 08:00:48;;;;;;;;;;;6.60;99.90;;;;;;5069574;28;19975;-49
2022/02/02 08:03:17;;;;;;;;;;;6.50;99.90;;;;;;5068393;28;20019;-49
2022/02/02 08:05:44;;;;;;;;;;;6.50;99.90;;;;;;5068953;28;19929;-49
2022/02/02 08:08:25;;;;;;;;;;;6.40;99.90;;;;;;5070327;28;19925;-51
2022/02/02 08:10:55;;;;;;;;;;;6.40;99.90;;;;;;5051294;28;19980;-48
2022/02/02 08:13:24;;;;;;;;;;;6.50;99.90;;;;;;5052650;28;19932;-50
2022/02/02 08:16:00;;;;;;;;;;;6.50;99.90;;;;;;5070155;28;19924;-48
2022/02/02 08:18:27;;;;;;;;;;;6.50;99.90;;;;;;5068460;28;20362;-49
2022/02/02 08:20:55;;;;;;;;;;;6.50;99.90;;;;;;5063355;28;20400;-51
2022/02/02 08:23:22;;;;;;;;;;;6.40;99.90;;;;;;5063884;28;19924;-50
2022/02/02 08:25:49;;;;;;;;;;;6.30;99.90;;;;;;5081722;28;19928;-49
2022/02/02 08:28:22;;;;;;;;;;;6.20;99.90;;;;;;5070125;28;20029;-51
2022/02/02 08:30:49;;;;;;;;;;;6.20;99.90;;;;;;5072873;28;19935;-50
2022/02/02 08:33:20;;;;;;;;;;;6.20;99.90;;;;;;5074578;28;19936;-49
2022/02/02 08:35:51;;;;;;;;;;;6.10;99.90;;;;;;5073286;28;19924;-50
2022/02/02 08:38:30;;;;;;;;;;;6.00;99.90;;;;;;5064590;28;19971;-50
2022/02/02 08:41:00;;;;;;;;;;;6.00;99.90;;;;;;5054911;28;19933;-49
2022/02/02 08:43:33;;;;;;;;;;;5.90;99.90;;;;;;5055303;28;20032;-49
2022/02/02 08:46:05;;;;;;;;;;;5.90;99.90;;;;;;5054870;28;19924;-50
2022/02/02 08:48:32;;;;;;;;;;;5.90;99.90;;;;;;5055066;28;19924;-51
2022/02/02 08:51:05;;;;;;;;;;;5.90;99.90;;;;;;5072582;28;19936;-49
2022/02/02 08:53:40;;;;;;;;;;;5.90;99.90;;;;;;5071970;28;20320;-49
2022/02/02 08:59:00;;;;;;;;;;;5.90;99.90;;;;;;5069845;28;19921;-49
2022/02/02 09:01:30;;;;;;;;;;;6.10;99.90;;;;;;5073304;28;19986;-49
2022/02/02 09:06:41;;;;;;;;;;;6.10;99.90;;;;;;5073292;28;20283;-50
2022/02/02 09:09:12;;;;;;;;;;;6.20;99.90;;;;;;5073001;28;19946;-49
2022/02/02 09:25:43;;;;;;;;;;;5.90;99.90;;;;;;5109806;27;19923;-52
2022/02/02 09:34:00;;;;;;;;;;;6.10;99.90;;;;;;5105035;28;19927;-52
2022/02/02 09:36:29;;;;;;;;;;;6.00;99.90;;;;;;5107429;28;19971;-52
2022/02/02 09:38:58;;;;;;;;;;;6.00;99.90;;;;;;5108074;28;19928;-52
2022/02/02 09:41:40;;;;;;;;;;;6.00;99.90;;;;;;5109583;28;19928;-51
2022/02/02 09:44:09;;;;;;;;;;;6.10;99.90;;;;;;5109665;28;20396;-52
2022/02/02 09:46:45;;;;;;;;;;;6.00;99.90;;;;;;5106350;28;19928;-52
2022/02/02 09:49:17;;;;;;;;;;;6.00;99.90;;;;;;5107047;28;19928;-52
2022/02/02 09:51:48;;;;;;;;;;;6.00;99.90;;;;;;5107696;28;20438;-52
2022/02/02 09:54:20;;;;;;;;;;;6.00;99.90;;;;;;5108355;28;19924;-53
2022/02/02 10:00:14;;;;;;;;;;;6.10;99.90;;;;;;5128715;27;19916;-52
2022/02/02 10:03:09;;;;;;;;;;;6.00;99.90;;;;;;5125091;27;20412;-52
2022/02/02 10:05:46;;;;;;;;;;;5.90;99.90;;;;;;5128158;27;20014;-52
2022/02/02 10:11:07;;;;;;;;;;;6.10;99.90;;;;;;5126567;27;20377;-52
2022/02/02 10:13:51;;;;;;;;;;;6.20;99.90;;;;;;5125796;22;19986;-52
2022/02/02 10:16:21;;;;;;;;;;;6.20;99.90;;;;;;5106355;28;19968;-50
2022/02/02 10:18:48;;;;;;;;;;;6.20;99.90;;;;;;5101276;28;20003;-51
2022/02/02 10:21:29;;;;;;;;;;;6.40;99.90;;;;;;5098789;28;19924;-50
2022/02/02 10:23:56;;;;;;;;;;;6.40;99.90;;;;;;5093243;28;19936;-49
2022/02/02 10:26:23;;;;;;;;;;;6.40;99.90;;;;;;5093171;28;19990;-51
2022/02/02 10:28:50;;;;;;;;;;;6.50;99.90;;;;;;5098645;28;20392;-49
2022/02/02 10:31:18;;;;;;;;;;;6.40;99.90;;;;;;5089539;28;19956;-50
2022/02/02 10:33:46;;;;;;;;;;;6.50;99.90;;;;;;5099329;28;20378;-50
2022/02/02 10:36:16;;;;;;;;;;;6.50;99.90;;;;;;5093948;28;19924;-52
2022/02/02 10:38:49;;;;;;;;;;;6.70;99.90;;;;;;5092544;28;19971;-49
2022/02/02 10:41:25;;;;;;;;;;;6.80;99.90;;;;;;5091545;28;20011;-49
2022/02/02 10:43:55;;;;;;;;;;;6.80;99.90;;;;;;5085909;28;19924;-48
2022/02/02 10:46:28;;;;;;;;;;;6.80;99.90;;;;;;5095671;28;19971;-50
2022/02/02 10:49:02;;;;;;;;;;;6.80;99.90;;;;;;5075852;28;19937;-49
2022/02/02 10:51:39;;;;;;;;;;;6.70;99.90;;;;;;5078013;28;19959;-50
2022/02/02 10:54:26;;;;;;;;;;;6.80;99.90;;;;;;5077212;28;19928;-49
2022/02/02 10:57:05;;;;;;;;;;;6.90;99.90;;;;;;5079389;28;19925;-49
2022/02/02 11:07:45;;;;;;;;;;;6.60;99.90;;;;;;5081363;28;20015;-52
2022/02/02 11:10:13;;;;;;;;;;;6.60;99.90;;;;;;5077509;28;19929;-52
2022/02/02 11:12:41;;;;;;;;;;;6.60;99.90;;;;;;5063618;28;20063;-50
2022/02/02 11:15:11;;;;;;;;;;;6.50;99.90;;;;;;5069593;28;19928;-51
2022/02/02 11:17:44;;;;;;;;;;;6.60;99.90;;;;;;5069814;28;19929;-53
2022/02/02 11:20:14;;;;;;;;;;;6.60;99.90;;;;;;5068224;28;20435;-50
2022/02/02 11:22:46;;;;;;;;;;;6.70;99.90;;;;;;5064951;28;19932;-49
2022/02/02 11:25:35;;;;;;;;;;;6.70;99.90;;;;;;5065436;28;20146;-49
2022/02/02 11:28:03;;;;;;;;;;;6.80;99.90;;;;;;5062561;28;20295;-51
2022/02/02 11:30:42;;;;;;;;;;;6.80;99.90;;;;;;5064824;28;20305;-50
2022/02/02 11:33:20;;;;;;;;;;;6.80;99.90;;;;;;5064988;28;20352;-49
2022/02/02 11:35:50;;;;;;;;;;;6.80;99.90;;;;;;5064493;28;19937;-52
2022/02/02 11:38:34;;;;;;;;;;;6.90;99.90;;;;;;5069338;28;19924;-51
2022/02/02 11:41:18;;;;;;;;;;;7.00;99.90;;;;;;5063570;28;19925;-51
2022/02/02 11:43:49;;;;;;;;;;;7.00;99.90;;;;;;5064107;28;20402;-51
2022/02/02 11:46:31;;;;;;;;;;;7.00;99.90;;;;;;5071213;28;19969;-52
2022/02/02 11:49:02;;;;;;;;;;;7.20;99.90;;;;;;5083676;28;20431;-50
2022/02/02 11:51:39;;;;;;;;;;;7.10;99.90;;;;;;5082831;28;19924;-50
2022/02/02 11:54:07;;;;;;;;;;;7.10;99.90;;;;;;5075808;28;20361;-49
2022/02/02 11:57:11;;;;;;;;;;;7.10;99.90;;;;;;5069976;28;19970;-49
2022/02/02 12:00:01;;;;;;;;;;;7.10;99.90;;;;;;5062812;28;20036;-49
2022/02/02 12:02:41;;;;;;;;;;;7.10;99.90;;;;;;5073175;28;19979;-49
2022/02/02 12:05:15;;;;;;;;;;;7.00;99.90;;;;;;5062497;28;20402;-51
2022/02/02 12:07:57;;;;;;;;;;;7.10;99.90;;;;;;5070310;28;19978;-50
2022/02/02 12:10:54;;;;;;;;;;;7.20;99.90;;;;;;5073306;28;20390;-50
2022/02/02 12:19:29;;;;;;;;;;;7.40;99.90;;;;;;5070739;28;19927;-50
2022/02/02 12:50:03;;;;;;;;;;;7.40;99.90;;;;;;5062992;28;19978;-51
2022/02/02 12:58:17;;;;;;;;;;;7.30;99.90;;;;;;5066735;28;19936;-50
2022/02/02 13:01:07;;;;;;;;;;;7.40;99.90;;;;;;5070450;28;19960;-51
2022/02/02 13:03:34;;;;;;;;;;;7.30;99.90;;;;;;5070633;28;19929;-51
2022/02/02 13:06:01;;;;;;;;;;;7.30;99.90;;;;;;5069966;28;20420;-50
2022/02/02 13:08:28;;;;;;;;;;;7.20;99.90;;;;;;5065919;28;19929;-52
2022/02/02 13:10:55;;;;;;;;;;;7.20;99.90;;;;;;5070499;28;19932;-51
2022/02/02 13:13:26;;;;;;;;;;;7.30;99.90;;;;;;5070185;28;20042;-51
2022/02/02 13:16:01;;;;;;;;;;;7.30;99.90;;;;;;5070030;28;19986;-50
2022/02/02 13:18:33;;;;;;;;;;;7.30;99.90;;;;;;5070335;28;19924;-49
2022/02/02 13:21:05;;;;;;;;;;;7.30;99.90;;;;;;5070770;28;19924;-49
2022/02/02 13:23:38;;;;;;;;;;;7.30;99.90;;;;;;5071565;28;19928;-50
2022/02/02 13:26:09;;;;;;;;;;;7.30;99.90;;;;;;5070579;28;19924;-51
2022/02/02 13:28:51;;;;;;;;;;;7.30;99.90;;;;;;5070668;28;19929;-50
2022/02/02 13:31:23;;;;;;;;;;;7.30;99.90;;;;;;5069520;28;19971;-51
2022/02/02 13:33:52;;;;;;;;;;;7.30;99.90;;;;;;5069668;28;20355;-53
2022/02/02 13:36:28;;;;;;;;;;;7.30;99.90;;;;;;5070179;28;19930;-51
2022/02/02 13:53:39;;;;;;;;;;;7.40;99.90;;;;;;5129163;27;19918;-52
2022/02/02 13:56:18;;;;;;;;;;;7.30;99.90;;;;;;5117897;27;19928;-51
2022/02/02 13:58:59;;;;;;;;;;;7.40;99.90;;;;;;5125118;28;19924;-51
2022/02/02 14:01:33;;;;;;;;;;;7.30;99.90;;;;;;5128935;27;19924;-51
2022/02/02 14:04:13;;;;;;;;;;;7.20;99.90;;;;;;5128947;27;19930;-52
2022/02/02 14:06:48;;;;;;;;;;;7.30;99.90;;;;;;5113487;27;20464;-51
2022/02/02 14:09:21;;;;;;;;;;;7.30;99.90;;;;;;5108310;28;19928;-50
2022/02/02 14:31:11;;;;;;;;;;;6.90;99.90;;;;;;5108723;28;19981;-51
2022/02/02 14:33:38;;;;;;;;;;;6.80;99.90;;;;;;5108597;28;20384;-51
2022/02/02 14:36:07;;;;;;;;;;;6.80;99.90;;;;;;5108071;28;19924;-50
2022/02/02 14:38:39;;;;;;;;;;;6.70;99.90;;;;;;5108289;28;19932;-50
2022/02/02 14:41:18;;;;;;;;;;;6.70;99.90;;;;;;5108441;28;20363;-51
2022/02/02 14:43:52;;;;;;;;;;;6.70;99.90;;;;;;5108488;28;19935;-51
2022/02/02 14:46:24;;;;;;;;;;;6.60;99.90;;;;;;5102755;28;19928;-50
2022/02/02 14:48:54;;;;;;;;;;;6.50;99.90;;;;;;5103252;28;20377;-50
2022/02/02 14:51:33;;;;;;;;;;;6.70;99.90;;;;;;5092650;28;19932;-50
2022/02/02 14:54:08;;;;;;;;;;;6.70;99.90;;;;;;5090280;28;19924;-48
2022/02/02 15:29:38;;;;;;;;;;;6.30;99.90;;;;;;5079878;28;19934;-50
2022/02/02 15:32:06;;;;;;;;;;;6.40;99.90;;;;;;5088905;28;19931;-51
2022/02/02 15:34:37;;;;;;;;;;;6.30;99.90;;;;;;5088404;28;19939;-51
2022/02/02 15:37:23;;;;;;;;;;;6.30;99.90;;;;;;5091692;28;20002;-51
2022/02/02 15:39:58;;;;;;;;;;;6.20;99.90;;;;;;5090668;28;20357;-52
2022/02/02 15:42:38;;;;;;;;;;;6.10;99.90;;;;;;5075626;28;19936;-51
2022/02/02 15:59:21;;;;;;;;;;;6.10;99.90;;;;;;5076185;28;20391;-51
2022/02/02 16:02:08;;;;;;;;;;;6.00;99.90;;;;;;5079021;28;19928;-50
2022/02/02 16:04:37;;;;;;;;;;;6.10;99.90;;;;;;5077867;28;19940;-50
2022/02/02 16:07:06;;;;;;;;;;;6.10;99.90;;;;;;5076237;28;19928;-51
2022/02/02 16:09:42;;;;;;;;;;;6.00;99.90;;;;;;5078944;28;19924;-50
2022/02/02 16:12:14;;;;;;;;;;;5.90;99.90;;;;;;5080835;28;20026;-51
2022/02/02 16:14:44;;;;;;;;;;;6.00;99.90;;;;;;5101665;22;19925;-51
2022/02/02 16:17:22;;;;;;;;;;;6.00;99.90;;;;;;5064323;28;21370;-51
2022/02/02 16:25:36;;;;;;;;;;;5.80;99.90;;;;;;5059157;28;20031;-50
2022/02/02 16:36:24;;;;;;;;;;;5.70;99.90;;;;;;5026597;28;20449;-52
2022/02/02 16:38:59;;;;;;;;;;;5.80;99.90;;;;;;5047901;28;20012;-51
2022/02/02 16:44:10;;;;;;;;;;;5.90;99.90;;;;;;5051400;28;20721;-52
2022/02/02 16:46:37;;;;;;;;;;;6.00;99.90;;;;;;5054265;28;19950;-51
2022/02/02 16:49:05;;;;;;;;;;;6.00;99.90;;;;;;5046032;28;19928;-52
2022/02/02 16:51:32;;;;;;;;;;;5.90;99.90;;;;;;5053238;28;19994;-51
2022/02/02 16:54:03;;;;;;;;;;;5.90;99.90;;;;;;5054671;28;19986;-52
2022/02/02 16:56:42;;;;;;;;;;;5.80;99.90;;;;;;5054528;28;20105;-52
2022/02/02 17:32:15;;;;;;;;;;;6.10;99.90;;;;;;5020286;28;19925;-51
2022/02/02 17:34:47;;;;;;;;;;;6.10;99.90;;;;;;5047634;28;19982;-50
2022/02/02 17:37:38;;;;;;;;;;;6.00;99.90;;;;;;5049490;28;19924;-50
2022/02/02 17:40:10;;;;;;;;;;;5.90;99.90;;;;;;5049561;28;19928;-50
2022/02/02 17:45:46;;;;;;;;;;;6.00;99.90;;;;;;4968493;28;20423;-50
2022/02/02 18:13:34;;;;;;;;;;;5.80;99.90;;;;;;5055053;28;20251;-50
2022/02/02 18:18:53;;;;;;;;;;;5.90;99.90;;;;;;5021800;28;20085;-50
2022/02/02 18:21:22;;;;;;;;;;;6.00;99.90;;;;;;5053157;28;19956;-51
2022/02/02 18:23:54;;;;;;;;;;;5.80;99.90;;;;;;5054279;28;19932;-54
2022/02/02 18:26:28;;;;;;;;;;;5.70;99.90;;;;;;5051788;28;20271;-51
2022/02/02 18:29:02;;;;;;;;;;;5.70;99.90;;;;;;5052284;28;19933;-51
2022/02/02 18:31:48;;;;;;;;;;;5.70;99.90;;;;;;5050081;28;19924;-51
2022/02/02 18:34:25;;;;;;;;;;;6.00;99.90;;;;;;5054096;28;20023;-52
2022/02/02 18:37:02;;;;;;;;;;;5.90;99.90;;;;;;5052054;28;20019;-51
2022/02/02 18:47:57;;;;;;;;;;;6.10;99.90;;;;;;5055047;28;19927;-52
2022/02/02 18:50:44;;;;;;;;;;;6.00;99.90;;;;;;5055439;28;19999;-52
2022/02/02 18:59:06;;;;;;;;;;;5.80;99.90;;;;;;5051321;28;21004;-52
2022/02/02 19:01:41;;;;;;;;;;;5.70;99.90;;;;;;5055759;28;19924;-52
2022/02/02 19:04:41;;;;;;;;;;;5.70;99.90;;;;;;5056683;28;20347;-52
2022/02/02 19:37:26;;;;;;;;;;;6.10;99.90;;;;;;5052184;28;19928;-51
2022/02/02 19:40:14;;;;;;;;;;;6.00;99.90;;;;;;5051634;28;19979;-52
2022/02/02 19:56:29;;;;;;;;;;;5.80;99.90;;;;;;5050866;28;20063;-52
2022/02/02 20:01:54;;;;;;;;;;;6.00;99.90;;;;;;5051069;28;19943;-52
2022/02/02 20:07:11;;;;;;;;;;;6.10;99.90;;;;;;5046836;28;20259;-52
2022/02/02 20:12:34;;;;;;;;;;;5.90;99.90;;;;;;5013985;28;19936;-52
2022/02/02 20:15:02;;;;;;;;;;;5.90;99.90;;;;;;5050651;28;19929;-52
2022/02/02 20:17:29;;;;;;;;;;;5.80;99.90;;;;;;5050377;28;19928;-52
2022/02/02 20:20:00;;;;;;;;;;;5.80;99.90;;;;;;5050381;28;19925;-52
2022/02/02 20:22:29;;;;;;;;;;;5.80;99.90;;;;;;5050478;28;19925;-52
2022/02/02 20:24:58;;;;;;;;;;;5.80;99.90;;;;;;5049552;28;19925;-52
2022/02/02 20:27:26;;;;;;;;;;;5.70;99.90;;;;;;5050572;28;19932;-52
2022/02/02 20:29:52;;;;;;;;;;;5.70;99.90;;;;;;5049940;28;20024;-52
2022/02/02 20:32:19;;;;;;;;;;;5.70;99.90;;;;;;5048707;28;20023;-52
2022/02/02 20:34:46;;;;;;;;;;;5.70;99.90;;;;;;5034741;28;19951;-52
2022/02/02 20:37:18;;;;;;;;;;;5.70;99.90;;;;;;5030412;28;19948;-52
2022/02/02 20:39:50;;;;;;;;;;;5.70;99.90;;;;;;5030825;28;19929;-52
2022/02/02 20:42:24;;;;;;;;;;;5.70;99.90;;;;;;5038723;28;19931;-52
2022/02/02 20:45:09;;;;;;;;;;;5.70;99.90;;;;;;5049158;28;19924;-52
2022/02/02 21:07:00;;;;;;;;;;;5.90;99.90;;;;;;5048458;28;19921;-51
2022/02/02 21:09:47;;;;;;;;;;;5.80;99.90;;;;;;5049075;28;19988;-52
2022/02/02 21:15:00;;;;;;;;;;;5.90;99.90;;;;;;5047290;28;19928;-52
2022/02/02 21:17:32;;;;;;;;;;;5.80;99.90;;;;;;5048457;28;20351;-52
2022/02/02 21:20:09;;;;;;;;;;;5.80;99.90;;;;;;5048304;28;19940;-51
2022/02/02 21:22:47;;;;;;;;;;;5.70;99.90;;;;;;5048151;28;20005;-52
2022/02/02 21:25:32;;;;;;;;;;;5.70;99.90;;;;;;5048704;28;19931;-52
2022/02/02 21:28:01;;;;;;;;;;;5.70;99.90;;;;;;5048443;28;19929;-52
2022/02/02 21:30:28;;;;;;;;;;;5.60;99.90;;;;;;5048361;28;19924;-51
2022/02/02 21:32:55;;;;;;;;;;;5.60;99.90;;;;;;5048105;28;19935;-51
2022/02/02 21:35:22;;;;;;;;;;;5.60;99.90;;;;;;5048249;28;19925;-51
2022/02/02 21:37:52;;;;;;;;;;;5.50;99.90;;;;;;5048384;28;19939;-51
2022/02/02 21:40:23;;;;;;;;;;;5.50;99.90;;;;;;5048220;28;20019;-51
2022/02/02 21:42:50;;;;;;;;;;;5.60;99.90;;;;;;5048170;28;20023;-52
2022/02/02 21:45:18;;;;;;;;;;;5.60;99.90;;;;;;5048590;28;20345;-52
2022/02/02 21:47:45;;;;;;;;;;;5.50;99.90;;;;;;5057477;28;19929;-51
2022/02/02 21:50:15;;;;;;;;;;;5.60;99.90;;;;;;5048603;28;19925;-51
2022/02/02 21:52:42;;;;;;;;;;;5.50;99.90;;;;;;5049301;28;19971;-52
2022/02/02 21:55:09;;;;;;;;;;;5.70;99.90;;;;;;5049108;28;19998;-52
2022/02/02 21:57:38;;;;;;;;;;;5.60;99.90;;;;;;5048980;28;20413;-51
2022/02/02 22:00:06;;;;;;;;;;;5.60;99.90;;;;;;5047473;28;19933;-52
2022/02/02 22:02:35;;;;;;;;;;;5.60;99.90;;;;;;5049491;28;19932;-51
2022/02/02 22:05:02;;;;;;;;;;;5.50;99.90;;;;;;5047454;28;19933;-51
2022/02/02 22:07:29;;;;;;;;;;;5.60;99.90;;;;;;5048335;28;20014;-51
2022/02/02 22:09:57;;;;;;;;;;;5.50;99.90;;;;;;5048323;28;19925;-51
2022/02/02 22:12:24;;;;;;;;;;;5.50;99.90;;;;;;5048580;28;20362;-52
2022/02/02 22:14:53;;;;;;;;;;;5.60;99.90;;;;;;5051704;28;19954;-50
2022/02/02 22:17:22;;;;;;;;;;;5.50;99.90;;;;;;5049816;28;19924;-51
2022/02/02 22:19:52;;;;;;;;;;;5.50;99.90;;;;;;5054968;28;19932;-51
2022/02/02 22:22:19;;;;;;;;;;;5.50;99.90;;;;;;5050285;28;20354;-52
2022/02/02 22:24:46;;;;;;;;;;;5.50;99.90;;;;;;5050018;28;19978;-51
2022/02/02 22:27:13;;;;;;;;;;;5.40;99.90;;;;;;5051712;28;20006;-51
2022/02/02 22:29:39;;;;;;;;;;;5.40;99.90;;;;;;5051560;28;20084;-52
2022/02/02 22:32:08;;;;;;;;;;;5.40;99.90;;;;;;5051618;28;20307;-51
2022/02/02 22:34:35;;;;;;;;;;;5.40;99.90;;;;;;5050369;28;19930;-51
2022/02/02 22:37:01;;;;;;;;;;;5.40;99.90;;;;;;5051569;28;19932;-50
2022/02/02 22:39:28;;;;;;;;;;;5.40;99.90;;;;;;5098668;22;20001;-50
2022/02/02 22:41:56;;;;;;;;;;;5.40;99.90;;;;;;5094360;28;20467;-51
2022/02/02 22:44:28;;;;;;;;;;;5.40;99.90;;;;;;5092274;28;19924;-50
2022/02/02 22:46:57;;;;;;;;;;;5.40;99.90;;;;;;5092198;28;20023;-50
2022/02/02 22:49:25;;;;;;;;;;;5.40;99.90;;;;;;5094246;28;20378;-51
2022/02/02 22:51:52;;;;;;;;;;;5.40;99.90;;;;;;5094600;28;19924;-52
2022/02/02 22:54:18;;;;;;;;;;;5.40;99.90;;;;;;5093842;28;19924;-50
2022/02/02 22:56:45;;;;;;;;;;;5.30;99.90;;;;;;5094190;28;19928;-51